Time;durP1;ratioP1;P1;durP2;ratioP2;P2;SDS_P1;SDS_P2;PMS_P1;PMS_P2;Temp;Humidity;BMP_temperature;BMP_pressure;BME280_temperature;BME280_humidity;BME280_pressure;Samples;Min_cycle;Max_cycle;Signal;HPM_P1;HPM_P2
2022/12/08 00:01:02;;;;;;;36.85;16.50;;;2.50;99.90;;;;;;4898294;29;19907;-63
2022/12/08 00:03:28;;;;;;;32.90;16.40;;;2.50;99.90;;;;;;4899557;29;20029;-65
2022/12/08 00:11:21;;;;;;;30.85;14.63;;;2.70;99.90;;;;;;4899335;29;20084;-63
2022/12/08 00:13:47;;;;;;;32.30;15.67;;;2.70;99.90;;;;;;4899638;29;20100;-64
2022/12/08 00:16:12;;;;;;;32.03;15.37;;;2.90;99.90;;;;;;4899690;29;20024;-63
2022/12/08 00:18:38;;;;;;;33.10;16.60;;;3.00;99.90;;;;;;4898342;29;20036;-63
2022/12/08 00:21:04;;;;;;;28.13;14.20;;;3.00;99.90;;;;;;4899896;29;20119;-63
2022/12/08 00:23:29;;;;;;;33.88;15.63;;;3.00;99.90;;;;;;4899622;29;20387;-63
2022/12/08 00:25:55;;;;;;;31.27;16.03;;;3.00;99.90;;;;;;4899997;29;20036;-63
2022/12/08 00:28:21;;;;;;;27.63;12.50;;;3.10;99.90;;;;;;4899452;29;20442;-63
2022/12/08 00:30:46;;;;;;;27.83;14.07;;;3.10;99.90;;;;;;4897996;29;20017;-65
2022/12/08 00:33:12;;;;;;;29.83;13.87;;;3.10;99.90;;;;;;4897985;29;20044;-64
2022/12/08 00:35:37;;;;;;;28.63;14.53;;;3.10;99.90;;;;;;4899612;29;20108;-64
2022/12/08 00:38:03;;;;;;;29.10;14.70;;;3.10;99.90;;;;;;4899741;29;20116;-64
2022/12/08 00:40:29;;;;;;;30.83;14.45;;;3.10;99.90;;;;;;4899581;29;20024;-64
2022/12/08 00:42:55;;;;;;;25.93;12.93;;;3.10;99.90;;;;;;4898414;29;20044;-65
2022/12/08 00:45:20;;;;;;;27.23;14.07;;;3.10;99.90;;;;;;4899219;29;20024;-65
2022/12/08 00:47:46;;;;;;;25.10;14.00;;;3.00;99.90;;;;;;4899191;29;20063;-63
2022/12/08 00:50:11;;;;;;;31.47;14.57;;;3.10;99.90;;;;;;4899130;29;20033;-63
2022/12/08 00:52:37;;;;;;;26.20;13.35;;;2.90;99.90;;;;;;4898701;29;20422;-65
2022/12/08 00:55:03;;;;;;;27.03;14.23;;;2.90;99.90;;;;;;4899643;29;20403;-64
2022/12/08 00:57:29;;;;;;;30.33;15.82;;;3.00;99.90;;;;;;4899109;29;20025;-64
2022/12/08 00:59:54;;;;;;;28.85;14.40;;;2.90;99.90;;;;;;4898906;29;20387;-63
2022/12/08 01:02:20;;;;;;;28.23;14.53;;;2.90;99.90;;;;;;4898237;29;20036;-63
2022/12/08 01:04:45;;;;;;;28.13;13.27;;;2.80;99.90;;;;;;4899095;29;20033;-63
2022/12/08 01:07:11;;;;;;;25.27;12.97;;;2.90;99.90;;;;;;4898713;29;20064;-65
2022/12/08 01:09:37;;;;;;;28.57;13.80;;;2.90;99.90;;;;;;4898740;29;20470;-64
2022/12/08 01:12:02;;;;;;;26.83;12.90;;;2.90;99.90;;;;;;4928661;23;20053;-63
2022/12/08 01:14:28;;;;;;;31.67;14.83;;;2.80;99.90;;;;;;4917709;29;20036;-65
2022/12/08 01:16:53;;;;;;;26.00;12.63;;;2.80;99.90;;;;;;4918184;29;20339;-65
2022/12/08 01:19:19;;;;;;;24.63;12.87;;;2.80;99.90;;;;;;4917841;29;20410;-63
2022/12/08 01:21:45;;;;;;;27.23;13.77;;;2.80;99.90;;;;;;4909424;29;20024;-64
2022/12/08 01:24:16;;;;;;;24.42;12.10;;;2.80;99.90;;;;;;4897097;29;20028;-63
2022/12/08 01:26:43;;;;;;;24.25;11.85;;;2.80;99.90;;;;;;4898721;29;20025;-64
2022/12/08 01:29:08;;;;;;;27.38;13.93;;;2.80;99.90;;;;;;4898795;29;20052;-64
2022/12/08 01:31:34;;;;;;;28.03;12.77;;;2.70;99.90;;;;;;4897589;29;20068;-64
2022/12/08 01:33:59;;;;;;;24.93;13.83;;;2.60;99.90;;;;;;4898807;29;20309;-64
2022/12/08 01:36:30;;;;;;;25.20;12.00;;;2.60;99.90;;;;;;4898239;29;20103;-61
2022/12/08 01:38:58;;;;;;;26.15;13.02;;;2.60;99.90;;;;;;4893088;29;20047;-64
2022/12/08 01:41:26;;;;;;;26.60;12.60;;;2.50;99.90;;;;;;4897619;29;20496;-65
2022/12/08 01:44:07;;;;;;;23.55;13.35;;;2.50;99.90;;;;;;4898614;29;20036;-66
2022/12/08 01:46:34;;;;;;;31.10;14.35;;;2.50;99.90;;;;;;4897068;29;20116;-64
2022/12/08 01:49:09;;;;;;;32.15;13.10;;;2.50;99.90;;;;;;4898667;29;20028;-64
2022/12/08 01:51:42;;;;;;;28.73;12.43;;;2.40;99.90;;;;;;4898232;29;20028;-63
2022/12/08 01:54:09;;;;;;;28.50;12.98;;;2.50;99.90;;;;;;4898581;29;20111;-63
2022/12/08 01:56:57;;;;;;;;;;;2.50;99.90;;;;;;4898618;29;20056;-64
2022/12/08 01:59:24;;;;;;;27.95;12.85;;;2.50;99.90;;;;;;4893052;29;19935;-64
2022/12/08 02:01:50;;;;;;;27.45;12.55;;;2.60;99.90;;;;;;4898496;29;20474;-62
2022/12/08 02:04:16;;;;;;;;;;;2.60;99.90;;;;;;4899120;29;20084;-61
2022/12/08 02:06:43;;;;;;;29.00;12.52;;;2.60;99.90;;;;;;4898370;29;19911;-63
2022/12/08 02:09:09;;;;;;;23.17;11.60;;;2.60;99.90;;;;;;4898836;29;20478;-64
2022/12/08 02:11:35;;;;;;;26.90;12.45;;;2.60;99.90;;;;;;4898859;29;20564;-63
2022/12/08 02:14:04;;;;;;;23.33;11.97;;;2.60;99.90;;;;;;4899799;29;20045;-64
2022/12/08 02:16:50;;;;;;;25.13;12.63;;;2.60;99.90;;;;;;4901042;29;20051;-64
2022/12/08 02:19:39;;;;;;;24.33;11.73;;;2.60;99.90;;;;;;4899724;29;20028;-63
2022/12/08 02:22:18;;;;;;;25.65;11.82;;;2.50;99.90;;;;;;4901881;29;20478;-64
2022/12/08 02:24:48;;;;;;;25.80;12.00;;;2.50;99.90;;;;;;4902339;29;20039;-64
2022/12/08 02:27:41;;;;;;;26.75;13.07;;;2.50;99.90;;;;;;4901963;29;20021;-60
2022/12/08 02:30:29;;;;;;;21.73;11.95;;;2.60;99.90;;;;;;4881932;29;20032;-65
2022/12/08 02:33:11;;;;;;;23.75;11.18;;;2.50;99.90;;;;;;4858769;29;20045;-64
2022/12/08 02:35:45;;;;;;;26.05;12.00;;;2.60;99.90;;;;;;4901725;29;20039;-64
2022/12/08 02:38:42;;;;;;;28.45;12.75;;;2.50;99.90;;;;;;4902204;29;20418;-64
2022/12/08 02:41:29;;;;;;;27.20;13.55;;;2.50;99.90;;;;;;4884036;29;20036;-63
2022/12/08 02:44:00;;;;;;;23.17;11.48;;;2.50;99.90;;;;;;4901468;29;20029;-65
2022/12/08 02:46:31;;;;;;;22.33;11.73;;;2.50;99.90;;;;;;4900473;29;20056;-63
2022/12/08 02:48:58;;;;;;;25.38;13.18;;;2.50;99.90;;;;;;4901392;29;20029;-64
2022/12/08 02:51:23;;;;;;;;;;;2.50;99.90;;;;;;4902439;29;20096;-63
2022/12/08 02:53:49;;;;;;;24.63;11.60;;;2.60;99.90;;;;;;4901633;29;20341;-65
2022/12/08 02:56:17;;;;;;;23.58;11.32;;;2.60;99.90;;;;;;4902630;29;20032;-64
2022/12/08 02:59:06;;;;;;;24.40;11.95;;;2.60;99.90;;;;;;4902653;29;20028;-64
2022/12/08 03:02:19;;;;;;;24.58;11.73;;;2.60;99.90;;;;;;4901314;29;20032;-63
2022/12/08 03:04:52;;;;;;;21.73;11.30;;;2.60;99.90;;;;;;4901671;29;20175;-64
2022/12/08 03:07:55;;;;;;;22.33;11.23;;;2.50;99.90;;;;;;4901617;29;20084;-65
2022/12/08 03:10:30;;;;;;;23.27;11.68;;;2.50;99.90;;;;;;4864925;29;20397;-64
2022/12/08 03:13:11;;;;;;;26.13;12.35;;;2.50;99.90;;;;;;4901115;29;20413;-65
2022/12/08 03:15:38;;;;;;;26.02;11.23;;;2.60;99.90;;;;;;4901111;29;20036;-63
2022/12/08 03:18:08;;;;;;;20.40;11.02;;;2.60;99.90;;;;;;4901367;29;20062;-64
2022/12/08 03:20:34;;;;;;;21.55;10.98;;;2.50;99.90;;;;;;4901163;29;20052;-63
2022/12/08 03:23:04;;;;;;;23.38;11.43;;;2.50;99.90;;;;;;4901086;29;20112;-64
2022/12/08 03:25:32;;;;;;;23.08;11.80;;;2.60;99.90;;;;;;4900864;29;20068;-64
2022/12/08 03:27:59;;;;;;;25.30;12.45;;;2.40;99.90;;;;;;4900679;29;20032;-64
2022/12/08 03:30:26;;;;;;;25.25;11.82;;;2.50;99.90;;;;;;4900632;29;20056;-65
2022/12/08 03:33:00;;;;;;;24.20;11.85;;;2.50;99.90;;;;;;4900762;29;20040;-64
2022/12/08 03:35:30;;;;;;;22.25;11.02;;;2.50;99.90;;;;;;4901013;29;20032;-65
2022/12/08 03:38:11;;;;;;;29.27;12.45;;;2.40;99.90;;;;;;4901191;29;20036;-64
2022/12/08 03:40:37;;;;;;;26.92;12.93;;;2.50;99.90;;;;;;4901437;29;20131;-63
2022/12/08 03:43:03;;;;;;;24.17;12.60;;;2.50;99.90;;;;;;4896916;29;20036;-63
2022/12/08 03:45:28;;;;;;;27.70;12.80;;;2.40;99.90;;;;;;4900612;29;20514;-64
2022/12/08 03:47:54;;;;;;;24.40;12.07;;;2.50;99.90;;;;;;4900759;29;20029;-64
2022/12/08 03:50:20;;;;;;;22.67;12.30;;;2.50;99.90;;;;;;4900725;29;20093;-63
2022/12/08 03:52:45;;;;;;;27.00;13.67;;;2.50;99.90;;;;;;4900442;29;20043;-64
2022/12/08 03:55:11;;;;;;;27.03;13.33;;;2.50;99.90;;;;;;4900733;29;20033;-63
2022/12/08 03:57:37;;;;;;;24.60;13.10;;;2.60;99.90;;;;;;4900067;29;20036;-65
2022/12/08 04:00:06;;;;;;;24.57;12.27;;;2.50;99.90;;;;;;4900188;29;20075;-63
2022/12/08 04:02:31;;;;;;;28.80;13.38;;;2.60;99.90;;;;;;4899945;29;20482;-64
2022/12/08 04:04:57;;;;;;;28.20;12.53;;;2.70;99.90;;;;;;4899923;29;20031;-64
2022/12/08 04:07:22;;;;;;;24.93;13.43;;;2.70;99.90;;;;;;4900376;29;20028;-62
2022/12/08 04:09:48;;;;;;;25.10;12.10;;;2.70;99.90;;;;;;4899912;29;20442;-63
2022/12/08 04:12:13;;;;;;;29.10;12.67;;;2.60;99.90;;;;;;4899545;29;20092;-63
2022/12/08 04:14:39;;;;;;;28.27;13.77;;;2.60;99.90;;;;;;4898449;29;20554;-64
2022/12/08 04:17:04;;;;;;;27.40;13.60;;;2.60;99.90;;;;;;4900191;29;20573;-64
2022/12/08 04:19:30;;;;;;;27.97;13.13;;;2.70;99.90;;;;;;4899324;29;20024;-63
2022/12/08 04:21:56;;;;;;;24.57;12.40;;;2.60;99.90;;;;;;4899487;29;20057;-65
2022/12/08 04:24:21;;;;;;;26.10;13.07;;;2.60;99.90;;;;;;4899954;29;20033;-63
2022/12/08 04:26:48;;;;;;;30.07;13.73;;;2.60;99.90;;;;;;4897993;29;20056;-63
2022/12/08 04:29:14;;;;;;;26.80;13.30;;;2.60;99.90;;;;;;4898194;29;20160;-64
2022/12/08 04:31:40;;;;;;;26.70;13.32;;;2.70;99.90;;;;;;4898229;29;20031;-64
2022/12/08 04:34:05;;;;;;;25.13;12.73;;;2.60;99.90;;;;;;4899800;29;20033;-64
2022/12/08 04:36:31;;;;;;;31.40;12.87;;;2.60;99.90;;;;;;4898340;29;20111;-62
2022/12/08 04:38:56;;;;;;;28.20;14.37;;;2.50;99.90;;;;;;4898173;29;20153;-63
2022/12/08 04:41:22;;;;;;;27.47;13.07;;;2.50;99.90;;;;;;4898907;29;20406;-64
2022/12/08 04:43:47;;;;;;;29.33;12.37;;;2.50;99.90;;;;;;4898860;29;20029;-64
2022/12/08 04:46:13;;;;;;;28.23;13.97;;;2.60;99.90;;;;;;4899474;29;20028;-63
2022/12/08 04:48:39;;;;;;;26.77;13.30;;;2.60;99.90;;;;;;4898902;29;20498;-61
2022/12/08 04:51:05;;;;;;;;;;;2.60;99.90;;;;;;4899264;29;20033;-63
2022/12/08 04:53:31;;;;;;;26.45;11.75;;;2.50;99.90;;;;;;4899069;29;19908;-64
2022/12/08 04:55:57;;;;;;;25.42;12.45;;;2.60;99.90;;;;;;4899397;29;20047;-64
2022/12/08 04:58:22;;;;;;;30.10;13.13;;;2.70;99.90;;;;;;4898583;29;20394;-63
2022/12/08 05:00:48;;;;;;;25.67;12.27;;;2.70;99.90;;;;;;4898811;29;20028;-63
2022/12/08 05:03:14;;;;;;;24.93;12.63;;;2.70;99.90;;;;;;4897701;29;20060;-64
2022/12/08 05:05:40;;;;;;;;;;;2.70;99.90;;;;;;4898009;29;20053;-64
2022/12/08 05:08:07;;;;;;;25.83;12.57;;;2.60;99.90;;;;;;4898978;29;19953;-64
2022/12/08 05:10:32;;;;;;;22.75;12.23;;;2.60;99.90;;;;;;4898983;29;20044;-63
2022/12/08 05:12:59;;;;;;;26.23;13.83;;;2.60;99.90;;;;;;4883171;29;20036;-64
2022/12/08 05:15:24;;;;;;;28.08;14.10;;;2.70;99.90;;;;;;4880476;29;20025;-64
2022/12/08 05:17:50;;;;;;;29.80;13.00;;;2.60;99.90;;;;;;4880573;29;20541;-72
2022/12/08 05:20:16;;;;;;;30.77;13.60;;;2.50;99.90;;;;;;4886322;29;20068;-65
2022/12/08 05:22:41;;;;;;;31.57;14.80;;;2.50;99.90;;;;;;4899356;29;20028;-70
2022/12/08 05:25:08;;;;;;;28.43;13.57;;;2.50;99.90;;;;;;4898358;29;20034;-69
2022/12/08 05:27:33;;;;;;;25.70;13.30;;;2.60;99.90;;;;;;4899052;29;20406;-64
2022/12/08 05:29:59;;;;;;;32.30;14.20;;;2.60;99.90;;;;;;4898704;29;20041;-64
2022/12/08 05:32:24;;;;;;;31.03;14.50;;;2.50;99.90;;;;;;4898820;29;20035;-65
2022/12/08 05:34:50;;;;;;;29.83;14.37;;;2.50;99.90;;;;;;4898956;29;20036;-68
2022/12/08 05:37:15;;;;;;;29.73;14.37;;;2.50;99.90;;;;;;4899354;29;20028;-63
2022/12/08 05:39:42;;;;;;;28.30;13.63;;;2.50;99.90;;;;;;4898506;29;20040;-64
2022/12/08 05:42:08;;;;;;;28.05;13.68;;;2.60;99.90;;;;;;4888723;29;20140;-67
2022/12/08 05:44:33;;;;;;;26.37;13.73;;;2.50;99.90;;;;;;4880456;29;20447;-63
2022/12/08 05:46:59;;;;;;;32.13;15.77;;;2.50;99.90;;;;;;4881241;29;20040;-64
2022/12/08 05:49:24;;;;;;;27.93;13.93;;;2.50;99.90;;;;;;4891495;29;20028;-63
2022/12/08 05:51:50;;;;;;;29.67;13.73;;;2.50;99.90;;;;;;4898340;29;20108;-62
2022/12/08 05:54:15;;;;;;;28.77;14.67;;;2.50;99.90;;;;;;4899501;29;20052;-64
2022/12/08 05:56:41;;;;;;;32.20;14.83;;;2.50;99.90;;;;;;4897185;29;20032;-62
2022/12/08 05:59:07;;;;;;;29.87;14.17;;;2.50;99.90;;;;;;4898858;29;20032;-62
2022/12/08 06:01:33;;;;;;;33.33;15.45;;;2.50;99.90;;;;;;4898268;29;20065;-63
2022/12/08 06:04:00;;;;;;;27.42;13.63;;;2.50;99.90;;;;;;4897324;29;20490;-62
2022/12/08 06:06:26;;;;;;;27.98;14.45;;;2.60;99.90;;;;;;4897018;29;20565;-62
2022/12/08 06:08:52;;;;;;;30.08;14.23;;;2.60;99.90;;;;;;4899371;29;20056;-62
2022/12/08 06:11:20;;;;;;;27.92;14.73;;;2.60;99.90;;;;;;4899258;29;20033;-62
2022/12/08 06:13:46;;;;;;;28.65;15.68;;;2.60;99.90;;;;;;4898896;29;20064;-61
2022/12/08 06:16:12;;;;;;;31.40;15.50;;;2.60;99.90;;;;;;4899041;29;20068;-61
2022/12/08 06:18:37;;;;;;;34.67;16.97;;;2.60;99.90;;;;;;4897562;29;20398;-61
2022/12/08 06:21:05;;;;;;;29.33;15.20;;;2.60;99.90;;;;;;4898220;29;20427;-59
2022/12/08 06:23:30;;;;;;;32.85;16.35;;;2.60;99.90;;;;;;4898225;29;20057;-61
2022/12/08 06:26:04;;;;;;;35.37;16.77;;;2.60;99.90;;;;;;4897581;29;20036;-62
2022/12/08 06:28:30;;;;;;;33.22;16.20;;;2.60;99.90;;;;;;4895663;29;20122;-63
2022/12/08 06:30:56;;;;;;;33.50;15.90;;;2.60;99.90;;;;;;4886846;29;20051;-63
2022/12/08 06:33:21;;;;;;;33.13;16.02;;;2.60;99.90;;;;;;4895841;29;20466;-61
2022/12/08 06:35:47;;;;;;;33.40;16.17;;;2.60;99.90;;;;;;4896805;29;20071;-61
2022/12/08 06:38:12;;;;;;;34.20;16.53;;;2.70;99.90;;;;;;4897670;29;20490;-63
2022/12/08 06:40:38;;;;;;;32.93;16.40;;;2.70;99.90;;;;;;4897973;29;20029;-65
2022/12/08 06:43:03;;;;;;;28.27;15.47;;;2.70;99.90;;;;;;4896865;29;20025;-70
2022/12/08 06:45:29;;;;;;;34.87;16.63;;;2.80;99.90;;;;;;4899128;29;20036;-70
2022/12/08 06:47:54;;;;;;;32.80;15.53;;;2.80;99.90;;;;;;4898312;29;20061;-61
2022/12/08 06:50:20;;;;;;;31.07;16.10;;;2.80;99.90;;;;;;4898501;29;20119;-63
2022/12/08 06:52:46;;;;;;;29.70;15.37;;;2.80;99.90;;;;;;4898301;29;20029;-64
2022/12/08 06:55:11;;;;;;;31.73;14.60;;;2.70;99.90;;;;;;4898168;29;20501;-66
2022/12/08 06:57:37;;;;;;;27.53;14.40;;;2.80;99.90;;;;;;4896276;29;20085;-63
2022/12/08 07:00:04;;;;;;;29.43;15.00;;;2.80;99.90;;;;;;4900134;29;20024;-63
2022/12/08 07:02:30;;;;;;;29.38;15.57;;;2.70;99.90;;;;;;4901326;29;20047;-62
2022/12/08 07:04:56;;;;;;;29.53;15.17;;;2.80;99.90;;;;;;4901717;29;20037;-63
2022/12/08 07:07:21;;;;;;;30.33;15.03;;;2.80;99.90;;;;;;4900063;29;20108;-63
2022/12/08 07:09:47;;;;;;;30.23;14.93;;;2.80;99.90;;;;;;4901249;29;20569;-64
2022/12/08 07:12:12;;;;;;;31.60;16.00;;;2.70;99.90;;;;;;4920350;23;20052;-65
2022/12/08 07:14:38;;;;;;;32.47;15.63;;;2.80;99.90;;;;;;4919063;29;20059;-65
2022/12/08 07:17:03;;;;;;;29.10;14.87;;;2.70;99.90;;;;;;4922022;29;20032;-65
2022/12/08 07:19:29;;;;;;;31.83;15.73;;;2.80;99.90;;;;;;4921521;29;20030;-65
2022/12/08 07:21:54;;;;;;;31.17;14.83;;;2.90;99.90;;;;;;4915057;29;20107;-64
2022/12/08 07:24:20;;;;;;;37.17;17.40;;;2.90;99.90;;;;;;4902093;29;20036;-65
2022/12/08 07:26:46;;;;;;;31.70;16.93;;;2.80;99.90;;;;;;4905046;29;20029;-65
2022/12/08 07:29:11;;;;;;;29.10;14.23;;;2.90;99.90;;;;;;4904000;29;20474;-66
2022/12/08 07:31:37;;;;;;;31.27;15.20;;;2.80;99.90;;;;;;4900676;29;20021;-65
2022/12/08 07:34:02;;;;;;;29.97;15.97;;;2.80;99.90;;;;;;4900703;29;20031;-65
2022/12/08 07:36:28;;;;;;;36.90;17.17;;;2.70;99.90;;;;;;4900947;29;20067;-65
2022/12/08 07:38:54;;;;;;;31.70;15.87;;;2.60;99.90;;;;;;4900316;29;20498;-65
2022/12/08 07:41:22;;;;;;;32.07;15.07;;;2.70;99.90;;;;;;4900181;29;20033;-65
2022/12/08 07:43:48;;;;;;;34.50;17.25;;;2.60;99.90;;;;;;4900004;29;20060;-65
2022/12/08 07:46:19;;;;;;;32.30;15.85;;;2.60;99.90;;;;;;4900183;29;20071;-65
2022/12/08 07:48:45;;;;;;;33.20;16.90;;;2.60;99.90;;;;;;4899089;29;20121;-65
2022/12/08 07:51:13;;;;;;;33.13;16.63;;;2.60;99.90;;;;;;4900543;29;20107;-65
2022/12/08 07:53:39;;;;;;;32.60;15.75;;;2.60;99.90;;;;;;4900079;29;20055;-65
2022/12/08 07:56:05;;;;;;;;;;;2.60;99.90;;;;;;4900668;29;20032;-65
2022/12/08 07:58:31;;;;;;;29.92;15.55;;;2.70;99.90;;;;;;4899674;29;20329;-65
2022/12/08 08:00:56;;;;;;;33.00;17.10;;;2.70;99.90;;;;;;4900303;29;20072;-65
2022/12/08 08:03:22;;;;;;;32.70;16.97;;;2.60;99.90;;;;;;4898725;29;20028;-65
2022/12/08 08:05:48;;;;;;;35.80;16.43;;;2.70;99.90;;;;;;4899852;29;20112;-65
2022/12/08 08:08:15;;;;;;;33.15;15.98;;;2.80;99.90;;;;;;4899914;29;20020;-64
2022/12/08 08:10:40;;;;;;;35.90;18.05;;;2.60;99.90;;;;;;4898787;29;20041;-65
2022/12/08 08:13:07;;;;;;;36.13;16.50;;;2.50;99.90;;;;;;4899400;29;20421;-65
2022/12/08 08:15:32;;;;;;;37.55;20.23;;;2.50;99.90;;;;;;4898625;29;20075;-65
2022/12/08 08:17:58;;;;;;;33.77;17.67;;;2.40;99.90;;;;;;4898198;29;20425;-65
2022/12/08 08:20:23;;;;;;;32.27;16.73;;;2.50;99.90;;;;;;4897820;29;20397;-65
2022/12/08 08:22:50;;;;;;;31.47;15.43;;;2.50;99.90;;;;;;4899430;29;20033;-64
2022/12/08 08:25:17;;;;;;;30.75;15.80;;;2.80;99.90;;;;;;4899601;29;20032;-65
2022/12/08 08:27:44;;;;;;;37.33;17.33;;;2.90;99.90;;;;;;4898697;29;20051;-65
2022/12/08 08:30:11;;;;;;;29.90;15.00;;;2.90;99.90;;;;;;4899774;29;20025;-66
2022/12/08 08:32:37;;;;;;;34.15;17.17;;;3.00;99.90;;;;;;4899515;29;20040;-65
2022/12/08 08:35:03;;;;;;;30.23;15.20;;;3.00;99.90;;;;;;4899414;29;20474;-65
2022/12/08 08:37:29;;;;;;;30.40;15.05;;;3.00;99.90;;;;;;4898255;29;20032;-65
2022/12/08 08:39:55;;;;;;;27.97;15.57;;;3.00;99.90;;;;;;4899345;29;20040;-65
2022/12/08 08:42:21;;;;;;;29.10;15.65;;;3.00;99.90;;;;;;4899502;29;20029;-65
2022/12/08 08:44:46;;;;;;;31.57;16.80;;;3.00;99.90;;;;;;4897947;29;20541;-65
2022/12/08 08:47:12;;;;;;;33.97;15.87;;;3.10;99.90;;;;;;4900379;29;20020;-65
2022/12/08 08:49:37;;;;;;;28.23;15.63;;;3.20;99.90;;;;;;4900442;29;20021;-66
2022/12/08 08:52:04;;;;;;;33.67;16.60;;;3.20;99.90;;;;;;4900913;29;20033;-65
2022/12/08 08:54:30;;;;;;;35.85;18.10;;;3.20;99.90;;;;;;4901049;29;20024;-65
2022/12/08 08:56:57;;;;;;;35.05;16.83;;;3.20;99.90;;;;;;4901275;29;20077;-65
2022/12/08 08:59:23;;;;;;;35.88;18.15;;;3.20;99.90;;;;;;4899830;29;20043;-66
2022/12/08 09:01:48;;;;;;;30.23;15.88;;;3.30;99.90;;;;;;4899690;29;20028;-66
2022/12/08 09:04:14;;;;;;;35.00;17.23;;;3.20;99.90;;;;;;4899272;29;20111;-66
2022/12/08 09:06:41;;;;;;;35.00;18.50;;;3.20;99.90;;;;;;4899260;29;20029;-66
2022/12/08 09:09:07;;;;;;;32.63;16.55;;;3.20;99.90;;;;;;4898996;29;20039;-66
2022/12/08 09:11:32;;;;;;;38.77;18.07;;;3.30;99.90;;;;;;4907455;29;20029;-66
2022/12/08 09:13:58;;;;;;;37.33;17.50;;;3.40;99.90;;;;;;4900328;29;20035;-66
2022/12/08 09:16:23;;;;;;;34.60;17.27;;;3.30;99.90;;;;;;4899332;29;20095;-65
2022/12/08 09:18:49;;;;;;;34.90;17.13;;;3.30;99.90;;;;;;4898999;29;20092;-66
2022/12/08 09:21:21;;;;;;;47.95;22.77;;;3.40;99.90;;;;;;4897406;29;20028;-65
2022/12/08 09:23:48;;;;;;;40.00;19.90;;;3.40;99.90;;;;;;4898774;29;20154;-65
2022/12/08 09:26:14;;;;;;;46.47;21.33;;;3.40;99.90;;;;;;4898578;29;20028;-66
2022/12/08 09:28:45;;;;;;;36.03;19.73;;;3.50;99.90;;;;;;4897118;29;20021;-65
2022/12/08 09:31:12;;;;;;;36.38;18.50;;;3.60;99.90;;;;;;4898856;29;20021;-65
2022/12/08 09:33:38;;;;;;;33.03;16.38;;;3.60;99.90;;;;;;4898578;29;20084;-66
2022/12/08 09:36:04;;;;;;;36.67;17.55;;;3.60;99.90;;;;;;4898730;29;20431;-65
2022/12/08 09:38:29;;;;;;;34.00;17.83;;;3.60;99.90;;;;;;4897443;29;20036;-66
2022/12/08 09:40:55;;;;;;;31.15;16.80;;;3.60;99.90;;;;;;4898577;29;20046;-65
2022/12/08 09:43:40;;;;;;;36.10;17.40;;;3.80;99.90;;;;;;4897873;29;20104;-66
2022/12/08 09:46:08;;;;;;;33.78;16.75;;;3.80;99.90;;;;;;4898624;29;20028;-66
2022/12/08 09:48:43;;;;;;;34.92;17.35;;;3.90;99.90;;;;;;4896926;29;20024;-66
2022/12/08 09:51:10;;;;;;;33.92;16.42;;;4.00;99.90;;;;;;4898352;29;20028;-66
2022/12/08 09:53:44;;;;;;;36.05;18.27;;;4.10;99.90;;;;;;4898181;29;20021;-66
2022/12/08 09:56:22;;;;;;;34.28;17.30;;;4.10;99.90;;;;;;4898786;29;20397;-66
2022/12/08 09:58:52;;;;;;;34.53;17.98;;;4.10;99.90;;;;;;4898061;29;20085;-66
2022/12/08 10:01:23;;;;;;;32.78;16.45;;;4.10;99.90;;;;;;4898523;29;20029;-66
2022/12/08 10:03:48;;;;;;;35.45;17.27;;;4.20;99.90;;;;;;4896812;29;20034;-66
2022/12/08 10:06:23;;;;;;;37.97;19.03;;;4.20;99.90;;;;;;4898102;29;20025;-66
2022/12/08 10:09:19;;;;;;;33.25;17.30;;;4.30;99.90;;;;;;4898663;29;20032;-66
2022/12/08 10:12:10;;;;;;;33.63;17.95;;;4.40;99.90;;;;;;4898004;29;20053;-65
2022/12/08 10:15:02;;;;;;;41.35;19.83;;;4.40;99.90;;;;;;4896622;29;20067;-65
2022/12/08 10:17:37;;;;;;;37.13;17.38;;;4.50;99.90;;;;;;4898575;29;20115;-66
2022/12/08 10:20:14;;;;;;;37.55;18.98;;;4.40;99.90;;;;;;4898305;29;20036;-65
2022/12/08 10:22:40;;;;;;;32.67;16.75;;;4.50;99.90;;;;;;4899117;29;20496;-66
2022/12/08 10:25:17;;;;;;;37.30;21.05;;;4.40;99.90;;;;;;4897801;29;20029;-65
2022/12/08 10:27:42;;;;;;;35.50;17.80;;;4.40;99.90;;;;;;4898134;29;20217;-66
2022/12/08 10:30:13;;;;;;;35.43;19.37;;;4.40;99.90;;;;;;4897918;29;20552;-66
2022/12/08 10:32:42;;;;;;;35.63;17.00;;;4.40;99.90;;;;;;4898087;29;20316;-66
2022/12/08 10:35:11;;;;;;;33.95;18.13;;;4.50;99.90;;;;;;4899307;29;20024;-66
2022/12/08 10:37:37;;;;;;;32.50;16.05;;;4.50;99.90;;;;;;4900690;29;20067;-66
2022/12/08 10:40:15;;;;;;;28.83;16.23;;;4.70;99.90;;;;;;4901756;29;20060;-66
2022/12/08 10:42:52;;;;;;;33.50;17.25;;;4.60;99.90;;;;;;4901064;29;20052;-66
2022/12/08 10:45:21;;;;;;;28.38;15.35;;;4.70;99.90;;;;;;4900853;29;20064;-66
2022/12/08 10:47:56;;;;;;;34.05;16.60;;;4.80;99.90;;;;;;4901019;29;20208;-65
2022/12/08 10:50:51;;;;;;;31.08;17.63;;;4.80;99.90;;;;;;4901355;29;20043;-66
2022/12/08 10:53:23;;;;;;;32.10;16.23;;;4.80;99.90;;;;;;4901247;29;20036;-65
2022/12/08 10:55:51;;;;;;;34.88;16.60;;;5.00;99.90;;;;;;4902297;29;20028;-66
2022/12/08 10:58:28;;;;;;;29.10;15.93;;;5.00;99.90;;;;;;4904096;29;20036;-67
2022/12/08 11:01:19;;;;;;;30.77;15.52;;;5.00;99.90;;;;;;4902493;29;20032;-65
2022/12/08 11:03:51;;;;;;;28.10;15.43;;;5.00;99.90;;;;;;4900658;29;20103;-66
2022/12/08 11:06:33;;;;;;;29.35;15.25;;;4.90;99.90;;;;;;4901257;29;20036;-65
2022/12/08 11:09:21;;;;;;;29.45;15.63;;;4.80;99.90;;;;;;4899950;29;20047;-66
2022/12/08 11:11:57;;;;;;;31.52;16.67;;;4.80;99.90;;;;;;4899806;29;20050;-65
2022/12/08 11:14:35;;;;;;;31.60;15.77;;;4.90;99.90;;;;;;4900666;29;20032;-66
2022/12/08 11:17:15;;;;;;;30.10;16.00;;;4.90;99.90;;;;;;4900090;29;20393;-64
2022/12/08 11:19:44;;;;;;;30.45;15.23;;;5.00;99.90;;;;;;4899680;29;20056;-66
2022/12/08 11:22:29;;;;;;;33.05;16.40;;;4.90;99.90;;;;;;4900608;29;20032;-66
2022/12/08 11:25:02;;;;;;;28.77;15.93;;;5.00;99.90;;;;;;4900260;29;20021;-66
2022/12/08 11:27:27;;;;;;;28.50;15.50;;;5.10;99.90;;;;;;4900602;29;20073;-66
2022/12/08 11:29:53;;;;;;;31.97;16.93;;;5.10;99.90;;;;;;4900790;29;20390;-66
2022/12/08 11:32:19;;;;;;;30.70;16.93;;;5.10;99.90;;;;;;4899314;29;20063;-66
2022/12/08 11:35:07;;;;;;;28.15;15.93;;;5.10;99.90;;;;;;4900798;29;20269;-65
2022/12/08 11:37:38;;;;;;;28.98;15.07;;;5.20;99.90;;;;;;4899807;29;20131;-66
2022/12/08 11:40:29;;;;;;;31.88;15.73;;;5.30;99.90;;;;;;4900698;29;20470;-65
2022/12/08 11:43:07;;;;;;;27.70;15.07;;;5.30;99.90;;;;;;4887149;29;20033;-66
2022/12/08 11:45:34;;;;;;;28.02;15.43;;;5.40;99.90;;;;;;4901075;29;20036;-66
2022/12/08 11:48:13;;;;;;;26.58;14.30;;;5.20;99.90;;;;;;4900245;29;20190;-66
2022/12/08 11:50:47;;;;;;;30.40;15.13;;;5.30;99.90;;;;;;4900286;29;20156;-66
2022/12/08 11:53:42;;;;;;;28.33;15.68;;;5.40;99.90;;;;;;4900320;29;20029;-65
2022/12/08 11:56:18;;;;;;;29.25;14.98;;;5.40;99.90;;;;;;4900256;29;20068;-65
2022/12/08 11:58:50;;;;;;;25.60;14.13;;;5.50;99.90;;;;;;4900234;29;20036;-66
2022/12/08 12:01:23;;;;;;;24.20;12.90;;;5.80;99.90;;;;;;4900401;29;20615;-66
2022/12/08 12:04:17;;;;;;;27.50;13.45;;;5.80;99.90;;;;;;4900552;29;20029;-66
2022/12/08 12:07:20;;;;;;;29.67;14.13;;;5.80;99.90;;;;;;4898754;29;20032;-65
2022/12/08 12:10:07;;;;;;;22.08;12.30;;;5.70;99.90;;;;;;4900215;29;20112;-65
2022/12/08 12:13:02;;;;;;;21.50;12.07;;;5.80;99.90;;;;;;4899869;29;20041;-66
2022/12/08 12:16:02;;;;;;;28.13;13.18;;;5.70;99.90;;;;;;4899429;29;20044;-66
2022/12/08 12:18:39;;;;;;;27.98;14.20;;;5.60;99.90;;;;;;4898608;29;20029;-66
2022/12/08 12:21:23;;;;;;;25.05;13.93;;;5.50;99.90;;;;;;4898620;29;20184;-65
2022/12/08 12:23:55;;;;;;;26.67;14.50;;;5.50;99.90;;;;;;4900287;29;20498;-65
2022/12/08 12:26:29;;;;;;;27.73;13.27;;;5.50;99.90;;;;;;4898516;29;20099;-66
2022/12/08 12:29:10;;;;;;;22.90;12.15;;;5.50;99.90;;;;;;4897855;29;20045;-66
2022/12/08 12:31:40;;;;;;;23.55;11.73;;;5.50;99.90;;;;;;4899257;29;20108;-65
2022/12/08 12:34:23;;;;;;;18.02;10.70;;;5.50;99.90;;;;;;4899886;29;20032;-65
2022/12/08 12:37:02;;;;;;;18.70;9.77;;;5.70;99.90;;;;;;4899692;29;20143;-66
2022/12/08 12:39:30;;;;;;;21.05;10.85;;;5.70;99.90;;;;;;4899386;29;20025;-65
2022/12/08 12:42:01;;;;;;;18.10;8.90;;;5.70;99.90;;;;;;4901025;29;20077;-66
2022/12/08 12:44:27;;;;;;;14.35;7.63;;;5.80;99.90;;;;;;4902912;29;20088;-65
2022/12/08 12:47:01;;;;;;;17.00;8.23;;;5.70;99.90;;;;;;4901064;29;20028;-65
2022/12/08 12:49:38;;;;;;;17.05;8.30;;;5.70;99.90;;;;;;4899174;29;20037;-66
2022/12/08 12:52:04;;;;;;;17.13;8.10;;;5.60;99.90;;;;;;4897890;29;20025;-66
2022/12/08 12:54:30;;;;;;;13.03;7.57;;;5.80;99.90;;;;;;4899643;29;20035;-68
2022/12/08 12:57:07;;;;;;;15.17;8.13;;;5.70;99.90;;;;;;4896919;29;20060;-69